Impacts TAF Board INFO
FOR SITUATIONAL AWARENESS. NOT TO BE USED FOR FLIGHT PLANNING PURPOSES.
IDs:

KJAN - Jackson/Evers Intl, MS, US

Issued at 1120 UTC 20 May 2018
Updated at 1218 UTC 20 May 2018
Potential Impact None Slight Moderate High
Time<<21/01Z 21/02Z 21/03Z 21/04Z 21/05Z 21/06Z 21/07Z 21/08Z 21/09Z 21/10Z 21/11Z 21/12Z 21/13Z>>
Type PRVL PRVL PRVL PRVL PRVL PRVL PRVL PRVL PRVL PRVL PRVL
VIS >6 >6 >6 >6 >6 >6 >6 >6 3 3 3
CIG 50 250 250 250 250 250 250 250 130 130 130
Cover BKN BKN BKN BKN BKN BKN BKN BKN BKN BKN BKN
FltCat VFR VFR VFR VFR VFR VFR VFR VFR MVFR MVFR MVFR
WX VCTS -- -- -- -- -- -- -- BR BR BR
WDir 90 110 110 110 110 110 110 110 130 130 130
WSpd 4 3 3 3 3 3 3 3 3 3 3
WGst -- -- -- -- -- -- -- -- -- -- --

Raw TAF
KJAN 201120Z 2012/2112 18003KT P6SM FEW090
  FM201600 26003KT P6SM VCTS FEW250CB
  FM201900 19005KT 6SM -TSRA BKN050CB BKN250
  FM202100 09004KT P6SM VCTS BKN050CB BKN250
  FM210200 11003KT P6SM SCT070 BKN250
  FM210900 13003KT 3SM BR BKN130 BKN250


METAR Board
Radar Display
Forecast Discussion

FOR SITUATIONAL AWARENESS. NOT TO BE USED FOR FLIGHT PLANNING PURPOSES.